createdAt,value
2018-07-13T00:01:12.523Z,21.92
2018-07-13T00:03:42.827Z,21.92
2018-07-13T00:06:12.858Z,21.91
2018-07-13T00:08:43.372Z,21.90
2018-07-13T00:11:13.520Z,21.87
2018-07-13T00:13:54.450Z,21.85
2018-07-13T00:16:24.852Z,21.83
2018-07-13T00:18:55.445Z,21.79
2018-07-13T00:21:25.598Z,21.76
2018-07-13T00:23:55.820Z,21.74
2018-07-13T00:26:26.235Z,21.70
2018-07-13T00:28:56.669Z,21.65
2018-07-13T00:31:27.074Z,21.63
2018-07-13T00:33:58.040Z,21.58
2018-07-13T00:36:29.214Z,21.56
2018-07-13T00:38:59.791Z,21.56
2018-07-13T00:41:30.036Z,21.53
2018-07-13T00:44:00.220Z,21.52
2018-07-13T00:46:31.641Z,21.49
2018-07-13T00:49:01.784Z,21.46
2018-07-13T00:51:32.597Z,21.42
2018-07-13T00:54:02.846Z,21.39
2018-07-13T00:56:33.006Z,21.36
2018-07-13T00:59:03.959Z,21.36
2018-07-13T01:01:34.919Z,21.35
2018-07-13T01:04:05.069Z,21.33
2018-07-13T01:06:35.351Z,21.32
2018-07-13T01:09:06.322Z,21.33
2018-07-13T01:11:37.012Z,21.33
2018-07-13T01:14:07.197Z,21.32
2018-07-13T01:16:37.292Z,21.32
2018-07-13T01:19:08.436Z,21.31
2018-07-13T01:21:38.808Z,21.29
2018-07-13T01:24:09.903Z,21.29
2018-07-13T01:26:40.175Z,21.27
2018-07-13T01:29:10.599Z,21.27
2018-07-13T01:31:40.992Z,21.28
2018-07-13T01:34:11.359Z,21.26
2018-07-13T01:36:41.944Z,21.25
2018-07-13T01:39:13.588Z,21.23
2018-07-13T01:41:45.069Z,21.21
2018-07-13T01:44:15.207Z,21.22
2018-07-13T01:46:45.210Z,21.20
2018-07-13T01:49:15.668Z,21.18
2018-07-13T01:51:46.007Z,21.17
2018-07-13T01:54:16.198Z,21.15
2018-07-13T01:56:46.433Z,21.14
2018-07-13T01:59:16.688Z,21.13
2018-07-13T02:01:46.840Z,21.13
2018-07-13T02:04:16.978Z,21.12
2018-07-13T02:06:47.586Z,21.11
2018-07-13T02:09:17.663Z,21.09
2018-07-13T02:11:48.122Z,21.08
2018-07-13T02:14:18.687Z,21.09
2018-07-13T02:16:48.922Z,21.07
2018-07-13T02:19:19.657Z,21.06
2018-07-13T02:21:49.721Z,21.09
2018-07-13T02:24:20.049Z,21.06
2018-07-13T02:26:50.288Z,21.08
2018-07-13T02:29:20.510Z,21.08
2018-07-13T02:31:51.149Z,21.06
2018-07-13T02:34:21.760Z,21.05
2018-07-13T02:36:51.908Z,21.03
2018-07-13T02:39:22.185Z,21.03
2018-07-13T02:41:52.681Z,21.01
2018-07-13T02:44:22.911Z,21.00
2018-07-13T02:46:52.964Z,20.98
2018-07-13T02:49:23.270Z,20.97
2018-07-13T02:51:53.556Z,20.96
2018-07-13T02:54:23.593Z,20.93
2018-07-13T02:56:54.086Z,20.93
2018-07-13T02:59:24.949Z,20.91
2018-07-13T03:01:55.101Z,20.90
2018-07-13T03:04:25.482Z,20.89
2018-07-13T03:06:57.227Z,20.89
2018-07-13T03:09:27.578Z,20.89
2018-07-13T03:11:57.724Z,20.88
2018-07-13T03:14:28.123Z,20.87
2018-07-13T03:16:59.135Z,20.87
2018-07-13T03:19:29.353Z,20.86
2018-07-13T03:21:59.322Z,20.86
2018-07-13T03:24:29.526Z,20.86
2018-07-13T03:26:59.627Z,20.86
2018-07-13T03:29:29.783Z,20.86
2018-07-13T03:31:59.925Z,20.85
2018-07-13T03:34:30.195Z,20.85
2018-07-13T03:37:00.559Z,20.84
2018-07-13T03:39:30.713Z,20.83
2018-07-13T03:42:01.013Z,20.82
2018-07-13T03:44:31.288Z,20.82
2018-07-13T03:47:02.418Z,20.82
2018-07-13T03:49:32.569Z,20.83
2018-07-13T03:52:02.705Z,20.86
2018-07-13T03:54:33.247Z,20.86
2018-07-13T03:57:04.443Z,20.86
2018-07-13T03:59:34.875Z,20.87
2018-07-13T04:02:04.984Z,20.89
2018-07-13T04:04:36.204Z,20.89
2018-07-13T04:07:06.578Z,20.94
2018-07-13T04:09:36.761Z,20.98
2018-07-13T04:12:07.166Z,21.01
2018-07-13T04:14:37.384Z,21.05
2018-07-13T04:17:07.528Z,21.09
2018-07-13T04:19:37.841Z,21.13
2018-07-13T04:22:08.414Z,21.18
2018-07-13T04:24:38.686Z,21.21
2018-07-13T04:27:08.757Z,21.25
2018-07-13T04:29:39.847Z,21.29
2018-07-13T04:32:10.123Z,21.34
2018-07-13T04:34:40.337Z,21.40
2018-07-13T04:37:10.635Z,21.43
2018-07-13T04:39:41.114Z,21.47
2018-07-13T04:42:11.647Z,21.52
2018-07-13T04:44:41.994Z,21.57
2018-07-13T04:47:12.498Z,21.62
2018-07-13T04:49:43.012Z,21.68
2018-07-13T04:52:13.575Z,21.74
2018-07-13T04:54:43.895Z,21.78
2018-07-13T04:57:14.122Z,21.82
2018-07-13T04:59:44.696Z,21.86
2018-07-13T05:02:15.176Z,21.91
2018-07-13T05:04:45.454Z,21.97
2018-07-13T05:07:15.482Z,22.01
2018-07-13T05:09:45.705Z,22.05
2018-07-13T05:12:15.847Z,22.09
2018-07-13T05:14:46.105Z,22.15
2018-07-13T05:17:16.427Z,22.21
2018-07-13T05:19:49.498Z,22.28
2018-07-13T05:22:20.269Z,22.32
2018-07-13T05:24:50.565Z,22.38
2018-07-13T05:27:21.189Z,22.43
2018-07-13T05:29:51.263Z,22.48
2018-07-13T05:32:21.670Z,22.52
2018-07-13T05:34:51.898Z,22.56
2018-07-13T05:37:22.613Z,22.65
2018-07-13T05:39:52.800Z,22.69
2018-07-13T05:42:23.038Z,22.75
2018-07-13T05:44:53.325Z,22.79
2018-07-13T05:47:23.830Z,22.82
2018-07-13T05:49:54.209Z,22.84
2018-07-13T05:52:24.510Z,22.87
2018-07-13T05:54:54.812Z,22.92
2018-07-13T05:57:25.614Z,22.96
2018-07-13T05:59:55.888Z,23.00
2018-07-13T06:02:26.758Z,23.04
2018-07-13T06:04:57.038Z,23.06
2018-07-13T06:07:27.580Z,23.11
2018-07-13T06:09:58.011Z,23.16
2018-07-13T06:12:28.473Z,23.23
2018-07-13T06:14:58.642Z,23.27
2018-07-13T06:17:28.893Z,23.31
2018-07-13T06:19:59.180Z,23.35
2018-07-13T06:22:30.018Z,23.40
2018-07-13T06:25:00.484Z,23.45
2018-07-13T06:27:30.769Z,23.48
2018-07-13T06:30:00.955Z,23.53
2018-07-13T06:32:31.516Z,23.57
2018-07-13T06:35:02.066Z,23.60
2018-07-13T06:37:32.633Z,23.67
2018-07-13T06:40:02.844Z,23.70
2018-07-13T06:42:33.006Z,23.76
2018-07-13T06:45:02.863Z,23.78
2018-07-13T06:47:33.019Z,23.81
2018-07-13T06:50:03.190Z,23.83
2018-07-13T06:52:33.150Z,23.86
2018-07-13T06:55:03.622Z,23.90
2018-07-13T06:57:44.592Z,23.94
2018-07-13T07:01:17.944Z,23.98
2018-07-13T07:04:52.719Z,24.03
2018-07-13T07:07:27.195Z,24.05
2018-07-13T07:09:58.114Z,24.07
2018-07-13T07:12:50.160Z,24.11
2018-07-13T07:15:20.159Z,24.11
2018-07-13T07:17:50.507Z,24.11
2018-07-13T07:20:20.974Z,24.12
2018-07-13T07:22:51.272Z,24.18
2018-07-13T07:25:21.467Z,24.21
2018-07-13T07:27:51.513Z,24.23
2018-07-13T07:30:21.605Z,24.27
2018-07-13T07:32:51.745Z,24.30
2018-07-13T07:35:22.455Z,24.35
2018-07-13T07:37:52.749Z,24.37
2018-07-13T07:40:23.252Z,24.42
2018-07-13T07:42:53.246Z,24.45
2018-07-13T07:45:23.376Z,24.48
2018-07-13T07:47:53.638Z,24.51
2018-07-13T07:50:23.755Z,24.54
2018-07-13T07:52:53.862Z,24.56
2018-07-13T07:55:24.267Z,24.59
2018-07-13T07:57:54.618Z,24.64
2018-07-13T08:00:25.019Z,24.66
2018-07-13T08:02:55.600Z,24.68
2018-07-13T08:05:26.955Z,24.71
2018-07-13T08:07:56.911Z,24.75
2018-07-13T08:10:27.577Z,24.78
2018-07-13T08:12:57.546Z,24.82
2018-07-13T08:15:28.023Z,24.86
2018-07-13T08:17:58.273Z,24.91
2018-07-13T08:20:31.076Z,24.95
2018-07-13T08:23:05.965Z,24.99
2018-07-13T08:25:37.688Z,25.04
2018-07-13T08:28:08.742Z,25.10
2018-07-13T08:30:40.809Z,25.17
2018-07-13T08:33:11.277Z,25.21
2018-07-13T08:35:41.519Z,25.25
2018-07-13T08:38:12.075Z,25.29
2018-07-13T08:40:42.452Z,25.34
2018-07-13T08:43:12.999Z,25.37
2018-07-13T08:45:43.847Z,25.41
2018-07-13T08:48:14.079Z,25.44
2018-07-13T08:50:44.039Z,25.48
2018-07-13T08:53:14.235Z,25.50
2018-07-13T08:55:44.629Z,25.56
2018-07-13T08:58:15.255Z,25.62
2018-07-13T09:00:45.810Z,25.66
2018-07-13T09:03:16.136Z,25.71
2018-07-13T09:05:46.503Z,25.72
2018-07-13T09:08:17.260Z,25.74
2018-07-13T09:10:47.668Z,25.74
2018-07-13T09:13:18.174Z,25.76
2018-07-13T09:15:48.397Z,25.83
2018-07-13T09:18:19.068Z,25.89
2018-07-13T09:20:49.336Z,25.97
2018-07-13T09:23:19.678Z,26.04
2018-07-13T09:25:50.655Z,26.11
2018-07-13T09:28:20.742Z,26.17
2018-07-13T09:30:51.146Z,26.23
2018-07-13T09:33:21.714Z,26.28
2018-07-13T09:35:52.459Z,26.30
2018-07-13T09:38:22.792Z,26.37
2018-07-13T09:40:53.492Z,26.39
2018-07-13T09:43:23.717Z,26.43
2018-07-13T09:45:53.900Z,26.47
2018-07-13T09:48:24.025Z,26.50
2018-07-13T09:50:55.177Z,26.53
2018-07-13T09:53:25.198Z,26.57
2018-07-13T09:55:55.331Z,26.59
2018-07-13T09:58:33.034Z,26.64
2018-07-13T10:01:08.208Z,26.65
2018-07-13T10:03:38.460Z,26.70
2018-07-13T10:06:08.533Z,26.76
2018-07-13T10:08:39.007Z,26.83
2018-07-13T10:11:09.493Z,26.88
2018-07-13T10:13:39.471Z,26.92
2018-07-13T10:16:11.096Z,26.95
2018-07-13T10:18:41.132Z,27.01
2018-07-13T10:21:11.596Z,27.07
2018-07-13T10:23:43.458Z,27.15
2018-07-13T10:26:16.778Z,27.21
2018-07-13T10:28:46.833Z,27.25
2018-07-13T10:31:17.014Z,27.31
2018-07-13T10:33:47.389Z,27.35
2018-07-13T10:36:19.631Z,27.40
2018-07-13T10:38:49.656Z,27.49
2018-07-13T10:41:20.694Z,27.51
2018-07-13T10:43:51.159Z,27.52
2018-07-13T10:46:25.930Z,27.52
2018-07-13T10:48:56.724Z,27.56
2018-07-13T10:51:27.017Z,27.62
2018-07-13T10:53:57.954Z,27.70
2018-07-13T10:56:28.114Z,27.72
2018-07-13T10:58:58.394Z,27.74
2018-07-13T11:01:28.802Z,27.75
2018-07-13T11:04:00.509Z,27.78
2018-07-13T11:06:30.831Z,27.81
2018-07-13T11:09:01.163Z,27.85
2018-07-13T11:11:31.271Z,27.89
2018-07-13T11:14:01.305Z,27.95
2018-07-13T11:16:31.802Z,28.04
2018-07-13T11:19:02.154Z,28.12
2018-07-13T11:21:32.286Z,28.16
2018-07-13T11:24:02.518Z,28.21
2018-07-13T11:26:32.910Z,28.25
2018-07-13T11:29:03.130Z,28.26
2018-07-13T11:31:33.393Z,28.33
2018-07-13T11:34:03.883Z,28.37
2018-07-13T11:36:34.256Z,28.44
2018-07-13T11:39:05.021Z,28.48
2018-07-13T11:41:35.753Z,28.53
2018-07-13T11:44:06.341Z,28.56
2018-07-13T11:46:36.864Z,28.60
2018-07-13T11:49:08.046Z,28.65
2018-07-13T11:51:38.591Z,28.64
2018-07-13T11:54:08.535Z,28.59
2018-07-13T11:56:38.860Z,28.60
2018-07-13T11:59:08.865Z,28.60
2018-07-13T12:01:39.230Z,28.58
2018-07-13T12:04:09.428Z,28.59
2018-07-13T12:06:39.695Z,28.56
2018-07-13T12:09:10.182Z,28.56
2018-07-13T12:11:40.496Z,28.56
2018-07-13T12:14:11.315Z,28.55
2018-07-13T12:16:42.102Z,28.53
2018-07-13T12:19:12.332Z,28.53
2018-07-13T12:21:42.643Z,28.49
2018-07-13T12:24:13.020Z,28.45
2018-07-13T12:26:43.398Z,28.39
2018-07-13T12:29:13.640Z,28.34
2018-07-13T12:31:43.718Z,28.29
2018-07-13T12:34:14.327Z,28.28
2018-07-13T12:36:44.309Z,28.23
2018-07-13T12:39:14.513Z,28.23
2018-07-13T12:41:45.285Z,28.26
2018-07-13T12:44:15.491Z,28.30
2018-07-13T12:46:45.607Z,28.34
2018-07-13T12:49:15.986Z,28.34
2018-07-13T12:51:46.052Z,28.33
2018-07-13T12:54:16.398Z,28.30
2018-07-13T12:56:47.390Z,28.28
2018-07-13T12:59:17.641Z,28.23
2018-07-13T13:01:48.059Z,28.17
2018-07-13T13:04:18.273Z,28.11
2018-07-13T13:06:48.415Z,28.03
2018-07-13T13:09:19.147Z,27.95
2018-07-13T13:11:49.846Z,27.92
2018-07-13T13:14:20.137Z,27.90
2018-07-13T13:16:50.361Z,27.88
2018-07-13T13:19:20.533Z,27.93
2018-07-13T13:21:50.811Z,27.99
2018-07-13T13:24:21.200Z,28.07
2018-07-13T13:26:51.672Z,28.15
2018-07-13T13:29:21.948Z,28.19
2018-07-13T13:31:52.126Z,28.19
2018-07-13T13:34:22.415Z,28.19
2018-07-13T13:36:52.697Z,28.19
2018-07-13T13:39:23.221Z,28.17
2018-07-13T13:41:53.785Z,28.15
2018-07-13T13:44:24.076Z,28.12
2018-07-13T13:46:54.210Z,28.11
2018-07-13T13:49:24.465Z,28.12
2018-07-13T13:51:54.792Z,28.12
2018-07-13T13:54:25.179Z,28.15
2018-07-13T13:56:55.355Z,28.21
2018-07-13T13:59:25.595Z,28.28
2018-07-13T14:01:55.819Z,28.34
2018-07-13T14:04:26.549Z,28.40
2018-07-13T14:06:57.321Z,28.46
2018-07-13T14:09:27.615Z,28.49
2018-07-13T14:11:57.894Z,28.54
2018-07-13T14:14:28.833Z,28.60
2018-07-13T14:16:59.220Z,28.66
2018-07-13T14:19:29.547Z,28.72
2018-07-13T14:22:00.146Z,28.76
2018-07-13T14:24:30.289Z,28.77
2018-07-13T14:27:03.323Z,28.77
2018-07-13T14:29:33.848Z,28.76
2018-07-13T14:32:04.204Z,28.72
2018-07-13T14:34:34.740Z,28.67
2018-07-13T14:37:05.318Z,28.54
2018-07-13T14:39:35.280Z,28.43
2018-07-13T14:42:06.763Z,28.35
2018-07-13T14:44:36.915Z,28.26
2018-07-13T14:47:07.183Z,28.15
2018-07-13T14:49:38.822Z,28.08
2018-07-13T14:52:09.405Z,27.92
2018-07-13T14:54:39.733Z,27.77
2018-07-13T14:57:09.949Z,27.66
2018-07-13T14:59:40.331Z,27.59
2018-07-13T15:02:10.834Z,27.57
2018-07-13T15:04:41.178Z,27.57
2018-07-13T15:07:11.509Z,27.60
2018-07-13T15:09:42.503Z,27.65
2018-07-13T15:12:12.855Z,27.72
2018-07-13T15:14:43.134Z,27.80
2018-07-13T15:17:13.596Z,27.93
2018-07-13T15:19:44.359Z,28.13
2018-07-13T15:22:14.583Z,28.27
2018-07-13T15:24:44.880Z,28.35
2018-07-13T15:27:15.594Z,28.50
2018-07-13T15:29:46.089Z,28.63
2018-07-13T15:32:16.524Z,28.80
2018-07-13T15:34:47.013Z,28.97
2018-07-13T15:37:17.355Z,29.14
2018-07-13T15:39:47.918Z,29.35
2018-07-13T15:42:18.048Z,29.55
2018-07-13T15:44:48.165Z,29.79
2018-07-13T15:47:18.338Z,29.99
2018-07-13T15:49:48.591Z,30.22
2018-07-13T15:52:18.768Z,30.43
2018-07-13T15:54:48.963Z,30.65
2018-07-13T15:57:19.059Z,30.86
2018-07-13T15:59:49.489Z,31.05
2018-07-13T16:02:19.637Z,31.23
2018-07-13T16:04:49.631Z,31.38
2018-07-13T16:07:20.046Z,31.45
2018-07-13T16:09:50.313Z,31.42
2018-07-13T16:12:20.193Z,31.29
2018-07-13T16:14:50.305Z,31.01
2018-07-13T16:17:20.550Z,30.50
2018-07-13T16:19:51.658Z,29.97
2018-07-13T16:22:21.692Z,29.48
2018-07-13T16:24:52.466Z,29.04
2018-07-13T16:27:22.528Z,28.69
2018-07-13T16:29:52.687Z,28.33
2018-07-13T16:32:22.916Z,28.02
2018-07-13T16:34:53.683Z,27.76
2018-07-13T16:37:23.861Z,27.54
2018-07-13T16:39:53.979Z,27.35
2018-07-13T16:42:24.192Z,27.17
2018-07-13T16:44:54.413Z,27.03
2018-07-13T16:47:24.979Z,26.92
2018-07-13T16:49:55.259Z,26.81
2018-07-13T16:52:25.468Z,26.72
2018-07-13T16:54:55.609Z,26.64
2018-07-13T16:57:25.951Z,26.57
2018-07-13T16:59:56.452Z,26.49
2018-07-13T17:02:28.432Z,26.43
2018-07-13T17:04:58.539Z,26.37
2018-07-13T17:07:29.339Z,26.30
2018-07-13T17:09:59.559Z,26.25
2018-07-13T17:12:29.879Z,26.19
2018-07-13T17:15:00.250Z,26.16
2018-07-13T17:17:30.377Z,26.10
2018-07-13T17:20:00.471Z,26.06
2018-07-13T17:22:31.303Z,26.03
2018-07-13T17:25:01.994Z,25.99
2018-07-13T17:27:33.934Z,25.94
2018-07-13T17:30:05.312Z,25.89
2018-07-13T17:32:35.583Z,25.82
2018-07-13T17:35:06.361Z,25.76
2018-07-13T17:37:36.662Z,25.70
2018-07-13T17:40:07.028Z,25.65
2018-07-13T17:42:37.201Z,25.61
2018-07-13T17:45:07.555Z,25.56
2018-07-13T17:47:37.926Z,25.51
2018-07-13T17:50:08.315Z,25.47
2018-07-13T17:52:38.485Z,25.43
2018-07-13T17:55:13.672Z,25.38
2018-07-13T17:57:46.266Z,25.36
2018-07-13T18:00:16.392Z,25.32
2018-07-13T18:02:46.706Z,25.31
2018-07-13T18:05:17.212Z,25.29
2018-07-13T18:07:47.641Z,25.29
2018-07-13T18:10:18.098Z,25.31
2018-07-13T18:12:48.570Z,25.31
2018-07-13T18:15:19.136Z,25.29
2018-07-13T18:17:49.965Z,25.28
2018-07-13T18:20:20.353Z,25.25
2018-07-13T18:22:50.877Z,25.23
2018-07-13T18:25:21.122Z,25.21
2018-07-13T18:27:51.592Z,25.19
2018-07-13T18:30:21.804Z,25.18
2018-07-13T18:32:52.153Z,25.17
2018-07-13T18:35:22.433Z,25.15
2018-07-13T18:37:53.009Z,25.14
2018-07-13T18:40:24.048Z,25.13
2018-07-13T18:42:54.417Z,25.11
2018-07-13T18:45:24.640Z,25.10
2018-07-13T18:47:55.009Z,25.06
2018-07-13T18:50:25.878Z,25.05
2018-07-13T18:52:56.006Z,25.03
2018-07-13T18:55:26.499Z,24.99
2018-07-13T18:57:57.067Z,24.95
2018-07-13T19:00:28.124Z,24.93
2018-07-13T19:02:58.469Z,24.90
2018-07-13T19:05:28.954Z,24.86
2018-07-13T19:07:59.308Z,24.83
2018-07-13T19:10:29.783Z,24.80
2018-07-13T19:12:59.968Z,24.76
2018-07-13T19:15:30.913Z,24.74
2018-07-13T19:18:01.367Z,24.70
2018-07-13T19:20:31.731Z,24.67
2018-07-13T19:23:02.149Z,24.66
2018-07-13T19:25:32.831Z,24.62
2018-07-13T19:28:03.077Z,24.59
2018-07-13T19:30:33.484Z,24.57
2018-07-13T19:33:04.254Z,24.54
2018-07-13T19:35:34.704Z,24.51
2018-07-13T19:38:05.502Z,24.50
2018-07-13T19:40:35.908Z,24.45
2018-07-13T19:43:06.200Z,24.42
2018-07-13T19:45:36.552Z,24.40
2018-07-13T19:48:07.079Z,24.39
2018-07-13T19:50:38.514Z,24.37
2018-07-13T19:53:08.890Z,24.35
2018-07-13T19:55:39.479Z,24.32
2018-07-13T19:58:09.706Z,24.30
2018-07-13T20:00:39.947Z,24.29
2018-07-13T20:03:10.475Z,24.27
2018-07-13T20:05:40.985Z,24.25
2018-07-13T20:08:11.221Z,24.23
2018-07-13T20:10:41.370Z,24.20
2018-07-13T20:13:11.926Z,24.18
2018-07-13T20:15:42.091Z,24.17
2018-07-13T20:18:12.175Z,24.14
2018-07-13T20:20:42.912Z,24.11
2018-07-13T20:23:13.197Z,24.07
2018-07-13T20:25:43.301Z,24.05
2018-07-13T20:28:13.618Z,24.01
2018-07-13T20:30:43.798Z,23.98
2018-07-13T20:33:14.421Z,23.97
2018-07-13T20:35:45.138Z,23.94
2018-07-13T20:38:15.316Z,23.94
2018-07-13T20:40:47.117Z,23.93
2018-07-13T20:43:17.383Z,23.91
2018-07-13T20:45:48.352Z,23.90
2018-07-13T20:48:19.106Z,23.90
2018-07-13T20:50:49.223Z,23.90
2018-07-13T20:53:19.690Z,23.89
2018-07-13T20:55:50.045Z,23.88
2018-07-13T20:58:20.400Z,23.89
2018-07-13T21:00:50.546Z,23.88
2018-07-13T21:03:20.737Z,23.88
2018-07-13T21:05:51.354Z,23.87
2018-07-13T21:08:21.558Z,23.86
2018-07-13T21:10:51.905Z,23.85
2018-07-13T21:13:22.218Z,23.83
2018-07-13T21:15:52.801Z,23.83
2018-07-13T21:18:23.029Z,23.82
2018-07-13T21:20:53.147Z,23.80
2018-07-13T21:23:23.464Z,23.79
2018-07-13T21:25:54.041Z,23.77
2018-07-13T21:28:24.661Z,23.75
2018-07-13T21:30:54.639Z,23.65
2018-07-13T21:33:31.304Z,23.72
2018-07-13T21:36:01.680Z,23.69
2018-07-13T21:38:31.935Z,23.67
2018-07-13T21:41:02.932Z,23.65
2018-07-13T21:43:33.116Z,23.63
2018-07-13T21:46:03.223Z,23.59
2018-07-13T21:48:33.805Z,23.57
2018-07-13T21:51:04.598Z,23.55
2018-07-13T21:53:34.834Z,23.52
2018-07-13T21:56:05.018Z,23.52
2018-07-13T21:58:35.524Z,23.50
2018-07-13T22:01:05.668Z,23.49
2018-07-13T22:03:35.391Z,23.46
2018-07-13T22:06:06.221Z,23.48
2018-07-13T22:08:36.438Z,23.47
2018-07-13T22:11:06.750Z,23.45
2018-07-13T22:13:37.476Z,23.45
2018-07-13T22:16:07.637Z,23.43
2018-07-13T22:18:38.150Z,23.43
2018-07-13T22:21:09.255Z,23.40
2018-07-13T22:23:39.668Z,23.41
2018-07-13T22:26:09.797Z,23.39
2018-07-13T22:28:40.177Z,23.38
2018-07-13T22:31:10.389Z,23.37
2018-07-13T22:33:40.547Z,23.37
2018-07-13T22:36:10.955Z,23.37
2018-07-13T22:38:41.350Z,23.36
2018-07-13T22:41:11.798Z,23.34
2018-07-13T22:43:42.090Z,23.32
2018-07-13T22:46:12.566Z,23.31
2018-07-13T22:48:43.330Z,23.32
2018-07-13T22:51:13.820Z,23.32
2018-07-13T22:53:44.658Z,23.32
2018-07-13T22:56:14.857Z,23.31
2018-07-13T22:58:45.293Z,23.32
2018-07-13T23:01:15.496Z,23.32
2018-07-13T23:03:46.276Z,23.30
2018-07-13T23:06:16.647Z,23.30
2018-07-13T23:08:47.673Z,23.29
2018-07-13T23:11:17.868Z,23.28
2018-07-13T23:13:48.375Z,23.25
2018-07-13T23:16:18.729Z,23.22
2018-07-13T23:18:49.397Z,23.20
2018-07-13T23:21:19.767Z,23.19
2018-07-13T23:23:49.768Z,23.17
2018-07-13T23:26:20.361Z,23.18
2018-07-13T23:28:50.804Z,23.19
2018-07-13T23:31:20.954Z,23.19
2018-07-13T23:33:51.283Z,23.18
2018-07-13T23:36:21.712Z,23.17
2018-07-13T23:38:52.004Z,23.17
2018-07-13T23:41:22.207Z,23.17
2018-07-13T23:43:52.450Z,23.17
2018-07-13T23:46:22.810Z,23.16
2018-07-13T23:48:52.886Z,23.13
2018-07-13T23:51:23.039Z,23.12
2018-07-13T23:53:53.339Z,23.10
2018-07-13T23:56:23.714Z,23.09
2018-07-13T23:58:54.597Z,23.06
